Messwerte Gore Bay

Temperatur

Temperatur
°C
1617969600 8.00 8.00 14
1617973200 9.00 9.00 13
1617976800 10.00 10.00 9
1617980400 11.00 11.00 10
1617984000 12.00 12.00 10
1617987600 13.00 13.00 12
1617991200 14.00 14.00 13
1617994800 15.00 15.00 16
1617998400 16.00 16.00 16
1618002000 17.00 17.00 13
1618005600 18.00 18.00 14
1618009200 19.00 19.00 15
1618012800 20.00 20.00 14
1618016400 21.00 21.00 10
1618020000 22.00 22.00
1618023600 23.00 23.00 11
1618027200 0.00 0.00 11
1618030800 1.00 1.00
1618034400 2.00 2.00 10
1618038000 3.00 3.00 9
1618041600 4.00 4.00 9
1618045200 5.00 5.00 7
1618048800 6.00 6.00 8
1618052400 7.00 7.00 5

Aktuellste Messwerte

Wettercharakter
Wetter: Nebel
Temperatur
6 °C
Feuchtigkeit
95 %
Wind
10 km/hWindrichtung: Südost
Luftdruck
1007 hPa
Messzeit: 10. April 2021, 8.00Datenquelle: METAR

Weitere Messstationen in der Nähe

Messstation Temperatur Entfernung
Great Duck Island 5 °C 40 km
Killarney 6 °C 85 km
Cove Island 7 °C 89 km
Drummond Island 8 °C 92 km
Rogers City 9 °C 110 km
Alpena 5 °C 119 km
Sault Sainte Marie 10 °C 152 km

Wind

Windrichtung Böen Mittelwind
° km/h km/h
1617969600 8.00 7.00 - 8.00 140° 30 20
1617973200 9.00 8.00 - 9.00 160° 45 30
1617976800 10.00 9.00 - 10.00 170° 45 25
1617980400 11.00 10.00 - 11.00 160° 30 20
1617984000 12.00 11.00 - 12.00 150° 30 20
1617987600 13.00 12.00 - 13.00 150° 30 20
1617991200 14.00 13.00 - 14.00 170° 30 20
1617994800 15.00 14.00 - 15.00 170° 30 20
1617998400 16.00 15.00 - 16.00 170° 40 30
1618002000 17.00 16.00 - 17.00 160° 45 25
1618005600 18.00 17.00 - 18.00 160° 50 20
1618009200 19.00 18.00 - 19.00 130° 20
1618012800 20.00 19.00 - 20.00 50° 15
1618016400 21.00 20.00 - 21.00 30° 15
1618020000 22.00 21.00 - 22.00
1618023600 23.00 22.00 - 23.00 120° 15
1618027200 0.00 23.00 - 0.00 130° 15
1618030800 1.00 0.00 - 1.00
1618034400 2.00 1.00 - 2.00 160° 30 15
1618038000 3.00 2.00 - 3.00 120° 10
1618041600 4.00 3.00 - 4.00 5
1618045200 5.00 4.00 - 5.00 140° 5
1618048800 6.00 5.00 - 6.00 0
1618052400 7.00 6.00 - 7.00 100° 5

Ihre Wetterstation

Fehlt Ihre Wetterstation auf unserem Portal?

Schreiben Sie an network@meteonews.ch

Klima

Wann ist es am wärmsten? Wann regnet es am wenigsten? Unsere Klimadaten geben Auskunft.